Startpagina
METAR-TAF:

METAR-TAF

Vliegvelden :

Hunt Field

Lander, Wyoming, Verenigde Staten

breedte: 42-48-53N, lengte: 108-43-41W, hoogte: 1703 m

Actueel weer

Dit bericht is 51 minuten geleden gemaakt, om 16:53 UTC
Wind 4 kt uit het noordwesten
Temperatuur -9°C
Vochtigheid 73%
Druk 1032 hPa
Zicht: 16.1 km
Onbewolkt

METAR: KLND 121653Z AUTO 32004KT 10SM CLR M09/M13 A3048 RMK AO2 SLP382 T10891133

Tijdstip: 10:44 (17:44 UTC)

Verwachting

Dit bericht is 14 minuten geleden gemaakt, om 17:30 UTC
Verwachting geldig van 12 om 18 UTC tot 13 om 18 UTC
Wind 5 kt uit variabele richting
Zicht: 10 km
Onbewolkt
Van 13 om 0000 UTC
Wind 5 kt uit variabele richting
Zicht: 10 km
Verspreide wolken op 10000 ft

TAF: KLND 121730Z 1218/1318 VRB05KT P6SM SKC FM130000 VRB05KT P6SM SCT100

Waarnemingen en weersverwachtingen van meer dan 4000 vliegvelden (METAR en TAF).

De beschikbare stations zijn de gele en rode punten op de kaart.

Ga met uw muis naar het station om de naam te zien.

Klik dan om waarnemingen en weersverwachtingen te zien.

kaart wijzigen: klik op de groene knoppen met een zwart kruis om in te zoomen, op de groene knop met een streepje om uit te zoomen of op de groene pijlen voor aangrenzende kaarten.


METAR-TAF: